sensor_id;sensor_type;location;lat;lon;timestamp;pressure;altitude;pressure_sealevel;temperature;humidity
76853;BME280;65825;52.232;10.566;2023-07-30T00:01:06;99981.59;;;16.52;100.00
76853;BME280;65825;52.232;10.566;2023-07-30T00:03:31;99979.88;;;16.51;100.00
76853;BME280;65825;52.232;10.566;2023-07-30T00:05:56;99982.31;;;16.54;100.00
76853;BME280;65825;52.232;10.566;2023-07-30T00:08:23;99986.06;;;16.51;100.00
76853;BME280;65825;52.232;10.566;2023-07-30T00:10:48;99986.56;;;16.44;100.00
76853;BME280;65825;52.232;10.566;2023-07-30T00:13:14;99991.88;;;16.44;100.00
76853;BME280;65825;52.232;10.566;2023-07-30T00:15:39;99997.81;;;16.35;100.00
76853;BME280;65825;52.232;10.566;2023-07-30T00:18:05;99991.81;;;16.31;100.00
76853;BME280;65825;52.232;10.566;2023-07-30T00:20:31;99990.41;;;16.26;100.00
76853;BME280;65825;52.232;10.566;2023-07-30T00:22:56;99993.19;;;16.24;100.00
76853;BME280;65825;52.232;10.566;2023-07-30T00:25:21;99988.44;;;16.15;100.00
76853;BME280;65825;52.232;10.566;2023-07-30T00:27:47;99990.88;;;16.06;100.00
76853;BME280;65825;52.232;10.566;2023-07-30T00:30:12;99989.06;;;16.06;100.00
76853;BME280;65825;52.232;10.566;2023-07-30T00:32:37;99992.22;;;15.99;100.00
76853;BME280;65825;52.232;10.566;2023-07-30T00:35:08;99994.88;;;15.99;100.00
76853;BME280;65825;52.232;10.566;2023-07-30T00:37:34;99996.94;;;16.08;100.00
76853;BME280;65825;52.232;10.566;2023-07-30T00:39:59;100001.56;;;16.18;100.00
76853;BME280;65825;52.232;10.566;2023-07-30T00:42:24;100004.97;;;16.20;100.00
76853;BME280;65825;52.232;10.566;2023-07-30T00:44:49;99997.91;;;16.33;100.00
76853;BME280;65825;52.232;10.566;2023-07-30T00:47:15;99999.34;;;16.39;100.00
76853;BME280;65825;52.232;10.566;2023-07-30T00:49:40;100006.66;;;16.35;100.00
76853;BME280;65825;52.232;10.566;2023-07-30T00:52:06;100002.91;;;16.38;100.00
76853;BME280;65825;52.232;10.566;2023-07-30T00:54:32;100002.88;;;16.39;100.00
76853;BME280;65825;52.232;10.566;2023-07-30T00:56:57;100003.03;;;16.36;100.00
76853;BME280;65825;52.232;10.566;2023-07-30T00:59:23;100004.47;;;16.28;100.00
76853;BME280;65825;52.232;10.566;2023-07-30T01:01:49;100002.78;;;16.27;100.00
76853;BME280;65825;52.232;10.566;2023-07-30T01:04:16;100006.88;;;16.32;100.00
76853;BME280;65825;52.232;10.566;2023-07-30T01:06:42;100014.19;;;16.29;100.00
76853;BME280;65825;52.232;10.566;2023-07-30T01:09:07;100013.25;;;16.30;100.00
76853;BME280;65825;52.232;10.566;2023-07-30T01:11:33;100014.19;;;16.29;100.00
76853;BME280;65825;52.232;10.566;2023-07-30T01:13:59;100022.38;;;16.40;100.00
76853;BME280;65825;52.232;10.566;2023-07-30T01:16:25;100012.56;;;16.40;100.00
76853;BME280;65825;52.232;10.566;2023-07-30T01:18:50;100021.31;;;16.42;100.00
76853;BME280;65825;52.232;10.566;2023-07-30T01:21:16;100030.28;;;16.54;100.00
76853;BME280;65825;52.232;10.566;2023-07-30T01:23:41;100017.34;;;16.62;100.00
76853;BME280;65825;52.232;10.566;2023-07-30T01:26:12;100021.28;;;16.69;100.00
76853;BME280;65825;52.232;10.566;2023-07-30T01:28:46;100017.47;;;16.73;100.00
76853;BME280;65825;52.232;10.566;2023-07-30T01:31:15;100029.94;;;16.85;100.00
76853;BME280;65825;52.232;10.566;2023-07-30T01:33:41;100024.19;;;16.91;100.00
76853;BME280;65825;52.232;10.566;2023-07-30T01:36:08;100025.16;;;16.90;100.00
76853;BME280;65825;52.232;10.566;2023-07-30T01:38:39;100029.44;;;16.92;100.00
76853;BME280;65825;52.232;10.566;2023-07-30T01:41:05;100027.19;;;16.86;100.00
76853;BME280;65825;52.232;10.566;2023-07-30T01:43:31;100032.44;;;16.88;100.00
76853;BME280;65825;52.232;10.566;2023-07-30T01:45:56;100029.44;;;16.92;100.00
76853;BME280;65825;52.232;10.566;2023-07-30T01:48:21;100031.91;;;16.95;100.00
76853;BME280;65825;52.232;10.566;2023-07-30T01:50:46;100031.69;;;16.98;100.00
76853;BME280;65825;52.232;10.566;2023-07-30T01:53:13;100035.13;;;17.00;100.00
76853;BME280;65825;52.232;10.566;2023-07-30T01:55:39;100039.06;;;17.07;100.00
76853;BME280;65825;52.232;10.566;2023-07-30T01:58:08;100043.34;;;17.10;100.00
76853;BME280;65825;52.232;10.566;2023-07-30T02:00:34;100042.50;;;17.09;100.00
76853;BME280;65825;52.232;10.566;2023-07-30T02:02:59;100039.84;;;17.09;100.00
76853;BME280;65825;52.232;10.566;2023-07-30T02:05:25;100047.72;;;17.11;100.00
76853;BME280;65825;52.232;10.566;2023-07-30T02:07:50;100043.34;;;17.10;100.00
76853;BME280;65825;52.232;10.566;2023-07-30T02:10:15;100043.97;;;17.13;100.00
76853;BME280;65825;52.232;10.566;2023-07-30T02:12:41;100036.84;;;17.14;100.00
76853;BME280;65825;52.232;10.566;2023-07-30T02:15:06;100042.38;;;17.11;100.00
76853;BME280;65825;52.232;10.566;2023-07-30T02:17:32;100039.28;;;17.17;100.00
76853;BME280;65825;52.232;10.566;2023-07-30T02:19:57;100037.91;;;17.24;100.00
76853;BME280;65825;52.232;10.566;2023-07-30T02:22:22;100041.88;;;17.31;100.00
76853;BME280;65825;52.232;10.566;2023-07-30T02:24:48;100031.19;;;17.31;100.00
76853;BME280;65825;52.232;10.566;2023-07-30T02:27:13;100030.22;;;17.32;100.00
76853;BME280;65825;52.232;10.566;2023-07-30T02:29:38;100029.63;;;17.41;100.00
76853;BME280;65825;52.232;10.566;2023-07-30T02:32:04;100033.34;;;17.38;100.00
76853;BME280;65825;52.232;10.566;2023-07-30T02:34:30;100035.72;;;17.43;100.00
76853;BME280;65825;52.232;10.566;2023-07-30T02:36:55;100041.06;;;17.43;100.00
76853;BME280;65825;52.232;10.566;2023-07-30T02:39:20;100039.75;;;17.48;100.00
76853;BME280;65825;52.232;10.566;2023-07-30T02:41:45;100040.00;;;17.45;100.00
76853;BME280;65825;52.232;10.566;2023-07-30T02:44:11;100042.78;;;17.44;100.00
76853;BME280;65825;52.232;10.566;2023-07-30T02:46:36;100043.94;;;17.40;100.00
76853;BME280;65825;52.232;10.566;2023-07-30T02:49:01;100047.44;;;17.28;100.00
76853;BME280;65825;52.232;10.566;2023-07-30T02:51:26;100053.47;;;17.17;100.00
76853;BME280;65825;52.232;10.566;2023-07-30T02:53:52;100052.72;;;17.03;100.00
76853;BME280;65825;52.232;10.566;2023-07-30T02:56:18;100050.66;;;16.94;100.00
76853;BME280;65825;52.232;10.566;2023-07-30T02:58:45;100059.91;;;16.76;100.00
76853;BME280;65825;52.232;10.566;2023-07-30T03:01:10;100057.44;;;16.73;100.00
76853;BME280;65825;52.232;10.566;2023-07-30T03:03:35;100072.28;;;16.77;100.00
76853;BME280;65825;52.232;10.566;2023-07-30T03:06:01;100074.41;;;16.72;100.00
76853;BME280;65825;52.232;10.566;2023-07-30T03:08:26;100076.06;;;16.60;100.00
76853;BME280;65825;52.232;10.566;2023-07-30T03:10:51;100078.16;;;16.55;100.00
76853;BME280;65825;52.232;10.566;2023-07-30T03:13:16;100074.13;;;16.50;100.00
76853;BME280;65825;52.232;10.566;2023-07-30T03:15:43;100075.81;;;16.51;100.00
76853;BME280;65825;52.232;10.566;2023-07-30T03:18:08;100072.28;;;16.36;100.00
76853;BME280;65825;52.232;10.566;2023-07-30T03:20:34;100077.91;;;16.32;100.00
76853;BME280;65825;52.232;10.566;2023-07-30T03:22:59;100084.03;;;16.20;100.00
76853;BME280;65825;52.232;10.566;2023-07-30T03:25:24;100072.44;;;16.21;100.00
76853;BME280;65825;52.232;10.566;2023-07-30T03:27:49;100074.22;;;16.20;100.00
76853;BME280;65825;52.232;10.566;2023-07-30T03:30:15;100076.63;;;16.11;100.00
76853;BME280;65825;52.232;10.566;2023-07-30T03:32:40;100084.34;;;16.01;100.00
76853;BME280;65825;52.232;10.566;2023-07-30T03:35:06;100079.50;;;15.94;100.00
76853;BME280;65825;52.232;10.566;2023-07-30T03:37:31;100078.94;;;15.89;100.00
76853;BME280;65825;52.232;10.566;2023-07-30T03:39:56;100086.53;;;15.81;100.00
76853;BME280;65825;52.232;10.566;2023-07-30T03:42:21;100086.19;;;15.73;100.00
76853;BME280;65825;52.232;10.566;2023-07-30T03:44:47;100083.59;;;15.71;100.00
76853;BME280;65825;52.232;10.566;2023-07-30T03:47:12;100092.44;;;15.72;100.00
76853;BME280;65825;52.232;10.566;2023-07-30T03:49:37;100086.66;;;15.65;100.00
76853;BME280;65825;52.232;10.566;2023-07-30T03:52:03;100088.44;;;15.65;100.00
76853;BME280;65825;52.232;10.566;2023-07-30T03:54:28;100096.53;;;15.49;100.00
76853;BME280;65825;52.232;10.566;2023-07-30T03:56:54;100098.97;;;15.52;100.00
76853;BME280;65825;52.232;10.566;2023-07-30T03:59:19;100097.00;;;15.42;100.00
76853;BME280;65825;52.232;10.566;2023-07-30T04:01:44;100104.38;;;15.51;100.00
76853;BME280;65825;52.232;10.566;2023-07-30T04:04:09;100099.84;;;15.53;100.00
76853;BME280;65825;52.232;10.566;2023-07-30T04:06:35;100102.78;;;15.48;100.00
76853;BME280;65825;52.232;10.566;2023-07-30T04:09:00;100108.22;;;15.47;100.00
76853;BME280;65825;52.232;10.566;2023-07-30T04:11:25;100108.22;;;15.47;100.00
76853;BME280;65825;52.232;10.566;2023-07-30T04:13:51;100096.88;;;15.43;100.00
76853;BME280;65825;52.232;10.566;2023-07-30T04:16:16;100097.44;;;15.48;100.00
76853;BME280;65825;52.232;10.566;2023-07-30T04:18:41;100095.56;;;15.50;100.00
76853;BME280;65825;52.232;10.566;2023-07-30T04:21:06;100099.94;;;15.51;100.00
76853;BME280;65825;52.232;10.566;2023-07-30T04:23:32;100107.63;;;15.56;100.00
76853;BME280;65825;52.232;10.566;2023-07-30T04:25:57;100111.06;;;15.58;100.00
76853;BME280;65825;52.232;10.566;2023-07-30T04:28:22;100109.25;;;15.58;100.00
76853;BME280;65825;52.232;10.566;2023-07-30T04:30:48;100115.34;;;15.60;100.00
76853;BME280;65825;52.232;10.566;2023-07-30T04:33:13;100120.75;;;15.59;100.00
76853;BME280;65825;52.232;10.566;2023-07-30T04:35:40;100123.41;;;15.59;100.00
76853;BME280;65825;52.232;10.566;2023-07-30T04:38:05;100127.59;;;15.63;100.00
76853;BME280;65825;52.232;10.566;2023-07-30T04:40:30;100124.84;;;15.64;100.00
76853;BME280;65825;52.232;10.566;2023-07-30T04:42:56;100129.88;;;15.69;100.00
76853;BME280;65825;52.232;10.566;2023-07-30T04:45:21;100133.38;;;15.69;100.00
76853;BME280;65825;52.232;10.566;2023-07-30T04:47:46;100130.94;;;15.66;100.00
76853;BME280;65825;52.232;10.566;2023-07-30T04:50:12;100130.16;;;15.78;100.00
76853;BME280;65825;52.232;10.566;2023-07-30T04:52:37;100130.38;;;15.75;100.00
76853;BME280;65825;52.232;10.566;2023-07-30T04:55:03;100121.81;;;15.84;100.00
76853;BME280;65825;52.232;10.566;2023-07-30T04:57:28;100125.72;;;15.79;100.00
76853;BME280;65825;52.232;10.566;2023-07-30T04:59:54;100120.59;;;15.90;100.00
76853;BME280;65825;52.232;10.566;2023-07-30T05:02:19;100122.94;;;15.94;100.00
76853;BME280;65825;52.232;10.566;2023-07-30T05:04:44;100127.44;;;15.94;100.00
76853;BME280;65825;52.232;10.566;2023-07-30T05:07:10;100130.94;;;15.94;100.00
76853;BME280;65825;52.232;10.566;2023-07-30T05:09:36;100128.56;;;16.04;100.00
76853;BME280;65825;52.232;10.566;2023-07-30T05:12:01;100133.59;;;16.08;100.00
76853;BME280;65825;52.232;10.566;2023-07-30T05:14:26;100129.03;;;16.10;100.00
76853;BME280;65825;52.232;10.566;2023-07-30T05:16:52;100125.22;;;16.14;100.00
76853;BME280;65825;52.232;10.566;2023-07-30T05:19:17;100117.13;;;16.16;100.00
76853;BME280;65825;52.232;10.566;2023-07-30T05:21:42;100128.53;;;16.18;100.00
76853;BME280;65825;52.232;10.566;2023-07-30T05:24:07;100121.91;;;16.25;100.00
76853;BME280;65825;52.232;10.566;2023-07-30T05:26:33;100124.25;;;16.29;100.00
76853;BME280;65825;52.232;10.566;2023-07-30T05:28:58;100121.78;;;16.26;100.00
76853;BME280;65825;52.232;10.566;2023-07-30T05:31:23;100127.56;;;16.33;100.00
76853;BME280;65825;52.232;10.566;2023-07-30T05:33:49;100128.81;;;16.41;100.00
76853;BME280;65825;52.232;10.566;2023-07-30T05:36:14;100125.66;;;16.49;100.00
76853;BME280;65825;52.232;10.566;2023-07-30T05:38:39;100129.03;;;16.65;100.00
76853;BME280;65825;52.232;10.566;2023-07-30T05:41:04;100124.63;;;16.78;100.00
76853;BME280;65825;52.232;10.566;2023-07-30T05:43:30;100128.09;;;16.92;100.00
76853;BME280;65825;52.232;10.566;2023-07-30T05:45:55;100120.91;;;17.07;100.00
76853;BME280;65825;52.232;10.566;2023-07-30T05:48:20;100122.09;;;17.15;100.00
76853;BME280;65825;52.232;10.566;2023-07-30T05:50:45;100124.44;;;17.20;100.00
76853;BME280;65825;52.232;10.566;2023-07-30T05:53:11;100121.25;;;17.27;100.00
76853;BME280;65825;52.232;10.566;2023-07-30T05:55:36;100119.53;;;17.40;100.00
76853;BME280;65825;52.232;10.566;2023-07-30T05:58:02;100118.03;;;17.49;100.00
76853;BME280;65825;52.232;10.566;2023-07-30T06:00:27;100124.97;;;17.64;100.00
76853;BME280;65825;52.232;10.566;2023-07-30T06:02:52;100122.72;;;17.70;100.00
76853;BME280;65825;52.232;10.566;2023-07-30T06:05:17;100127.00;;;17.73;100.00
76853;BME280;65825;52.232;10.566;2023-07-30T06:07:43;100121.66;;;17.73;100.00
76853;BME280;65825;52.232;10.566;2023-07-30T06:10:08;100128.59;;;17.75;100.00
76853;BME280;65825;52.232;10.566;2023-07-30T06:12:33;100130.00;;;17.81;100.00
76853;BME280;65825;52.232;10.566;2023-07-30T06:14:59;100133.09;;;17.87;100.00
76853;BME280;65825;52.232;10.566;2023-07-30T06:17:24;100132.66;;;17.93;100.00
76853;BME280;65825;52.232;10.566;2023-07-30T06:19:49;100124.13;;;17.88;100.00
76853;BME280;65825;52.232;10.566;2023-07-30T06:22:15;100129.75;;;17.96;100.00
76853;BME280;65825;52.232;10.566;2023-07-30T06:24:40;100126.47;;;17.93;100.00
76853;BME280;65825;52.232;10.566;2023-07-30T06:27:05;100134.03;;;18.11;100.00
76853;BME280;65825;52.232;10.566;2023-07-30T06:29:31;100131.75;;;18.30;100.00
76853;BME280;65825;52.232;10.566;2023-07-30T06:31:56;100133.28;;;18.34;100.00
76853;BME280;65825;52.232;10.566;2023-07-30T06:34:21;100137.75;;;18.34;100.00
76853;BME280;65825;52.232;10.566;2023-07-30T06:36:46;100137.75;;;18.34;100.00
76853;BME280;65825;52.232;10.566;2023-07-30T06:39:12;100132.94;;;18.39;99.74
76853;BME280;65825;52.232;10.566;2023-07-30T06:41:37;100134.97;;;18.48;97.74
76853;BME280;65825;52.232;10.566;2023-07-30T06:44:03;100142.06;;;18.60;97.40
76853;BME280;65825;52.232;10.566;2023-07-30T06:46:28;100139.47;;;18.71;96.34
76853;BME280;65825;52.232;10.566;2023-07-30T06:48:53;100139.31;;;18.85;95.77
76853;BME280;65825;52.232;10.566;2023-07-30T06:51:19;100140.94;;;18.75;92.67
76853;BME280;65825;52.232;10.566;2023-07-30T06:53:45;100143.47;;;18.89;92.08
76853;BME280;65825;52.232;10.566;2023-07-30T06:56:10;100152.47;;;18.88;92.27
76853;BME280;65825;52.232;10.566;2023-07-30T06:58:36;100137.72;;;18.82;90.21
76853;BME280;65825;52.232;10.566;2023-07-30T07:01:01;100132.78;;;18.89;89.87
76853;BME280;65825;52.232;10.566;2023-07-30T07:03:26;100140.34;;;18.95;88.21
76853;BME280;65825;52.232;10.566;2023-07-30T07:05:55;100131.28;;;19.08;86.99
76853;BME280;65825;52.232;10.566;2023-07-30T07:08:21;100142.34;;;19.04;85.71
76853;BME280;65825;52.232;10.566;2023-07-30T07:10:46;100143.69;;;19.09;85.98
76853;BME280;65825;52.232;10.566;2023-07-30T07:13:12;100139.53;;;19.29;83.84
76853;BME280;65825;52.232;10.566;2023-07-30T07:15:43;100144.06;;;19.28;84.93
76853;BME280;65825;52.232;10.566;2023-07-30T07:18:08;100144.44;;;19.35;84.29
76853;BME280;65825;52.232;10.566;2023-07-30T07:20:34;100142.00;;;19.32;82.60
76853;BME280;65825;52.232;10.566;2023-07-30T07:22:59;100133.44;;;19.61;81.36
76853;BME280;65825;52.232;10.566;2023-07-30T07:25:24;100146.69;;;19.52;80.33
76853;BME280;65825;52.232;10.566;2023-07-30T07:27:50;100137.97;;;19.83;76.64
76853;BME280;65825;52.232;10.566;2023-07-30T07:30:15;100138.00;;;20.05;78.84
76853;BME280;65825;52.232;10.566;2023-07-30T07:32:40;100149.19;;;19.99;77.43
76853;BME280;65825;52.232;10.566;2023-07-30T07:35:06;100154.69;;;19.97;75.58
76853;BME280;65825;52.232;10.566;2023-07-30T07:37:32;100148.28;;;20.44;72.76
76853;BME280;65825;52.232;10.566;2023-07-30T07:39:57;100161.31;;;20.37;70.18
76853;BME280;65825;52.232;10.566;2023-07-30T07:42:22;100159.53;;;20.80;69.67
76853;BME280;65825;52.232;10.566;2023-07-30T07:44:48;100151.97;;;20.85;68.29
76853;BME280;65825;52.232;10.566;2023-07-30T07:47:13;100147.38;;;20.76;69.07
76853;BME280;65825;52.232;10.566;2023-07-30T07:49:38;100146.75;;;20.95;68.92
76853;BME280;65825;52.232;10.566;2023-07-30T07:52:04;100148.81;;;21.02;66.90
76853;BME280;65825;52.232;10.566;2023-07-30T07:54:29;100155.53;;;21.80;64.19
76853;BME280;65825;52.232;10.566;2023-07-30T07:56:54;100151.56;;;21.84;62.90
76853;BME280;65825;52.232;10.566;2023-07-30T07:59:20;100148.66;;;22.17;62.88
76853;BME280;65825;52.232;10.566;2023-07-30T08:01:45;100155.84;;;22.77;61.20
76853;BME280;65825;52.232;10.566;2023-07-30T08:04:10;100152.06;;;23.08;57.99
76853;BME280;65825;52.232;10.566;2023-07-30T08:06:35;100151.47;;;22.76;58.68
76853;BME280;65825;52.232;10.566;2023-07-30T08:09:01;100152.97;;;23.27;55.38
76853;BME280;65825;52.232;10.566;2023-07-30T08:11:27;100148.72;;;24.55;53.43
76853;BME280;65825;52.232;10.566;2023-07-30T08:13:52;100148.06;;;25.85;48.90
76853;BME280;65825;52.232;10.566;2023-07-30T08:16:17;100148.66;;;25.19;51.04
76853;BME280;65825;52.232;10.566;2023-07-30T08:18:42;100155.72;;;25.29;50.77
76853;BME280;65825;52.232;10.566;2023-07-30T08:21:08;100140.03;;;25.50;48.44
76853;BME280;65825;52.232;10.566;2023-07-30T08:23:33;100147.97;;;27.85;43.31
76853;BME280;65825;52.232;10.566;2023-07-30T08:25:59;100160.97;;;26.76;43.65
76853;BME280;65825;52.232;10.566;2023-07-30T08:28:24;100167.50;;;26.06;45.65
76853;BME280;65825;52.232;10.566;2023-07-30T08:30:49;100152.47;;;27.12;45.19
76853;BME280;65825;52.232;10.566;2023-07-30T08:33:15;100149.47;;;27.23;42.45
76853;BME280;65825;52.232;10.566;2023-07-30T08:35:40;100155.28;;;27.92;40.73
76853;BME280;65825;52.232;10.566;2023-07-30T08:38:05;100148.19;;;29.00;39.75
76853;BME280;65825;52.232;10.566;2023-07-30T08:40:31;100154.00;;;28.35;39.21
76853;BME280;65825;52.232;10.566;2023-07-30T08:42:57;100153.31;;;29.26;39.13
76853;BME280;65825;52.232;10.566;2023-07-30T08:45:22;100145.03;;;29.19;40.55
76853;BME280;65825;52.232;10.566;2023-07-30T08:47:48;100155.28;;;27.52;41.03
76853;BME280;65825;52.232;10.566;2023-07-30T08:50:13;100144.84;;;29.66;38.40
76853;BME280;65825;52.232;10.566;2023-07-30T08:52:40;100147.25;;;30.93;36.40
76853;BME280;65825;52.232;10.566;2023-07-30T08:55:06;100144.63;;;30.99;34.76
76853;BME280;65825;52.232;10.566;2023-07-30T08:57:32;100152.31;;;32.15;33.26
76853;BME280;65825;52.232;10.566;2023-07-30T09:00:06;100145.03;;;31.17;34.11
76853;BME280;65825;52.232;10.566;2023-07-30T09:02:50;100136.69;;;31.82;33.44
76853;BME280;65825;52.232;10.566;2023-07-30T09:05:16;100133.13;;;30.02;35.10
76853;BME280;65825;52.232;10.566;2023-07-30T09:07:41;100123.38;;;30.08;35.31
76853;BME280;65825;52.232;10.566;2023-07-30T09:10:07;100126.56;;;28.76;37.17
76853;BME280;65825;52.232;10.566;2023-07-30T09:12:33;100134.63;;;30.71;34.76
76853;BME280;65825;52.232;10.566;2023-07-30T09:14:59;100142.22;;;29.27;35.49
76853;BME280;65825;52.232;10.566;2023-07-30T09:17:25;100118.50;;;28.83;37.94
76853;BME280;65825;52.232;10.566;2023-07-30T09:19:51;100133.94;;;28.98;37.00
76853;BME280;65825;52.232;10.566;2023-07-30T09:22:27;100133.91;;;30.11;36.09
76853;BME280;65825;52.232;10.566;2023-07-30T09:24:54;100138.00;;;31.23;35.01
76853;BME280;65825;52.232;10.566;2023-07-30T09:27:23;100128.44;;;29.59;35.28
76853;BME280;65825;52.232;10.566;2023-07-30T09:29:55;100124.28;;;30.37;33.88
76853;BME280;65825;52.232;10.566;2023-07-30T09:32:28;100131.00;;;32.04;31.81
76853;BME280;65825;52.232;10.566;2023-07-30T09:34:53;100131.31;;;28.74;37.41
76853;BME280;65825;52.232;10.566;2023-07-30T09:37:19;100131.97;;;30.48;33.36
76853;BME280;65825;52.232;10.566;2023-07-30T09:39:47;100137.06;;;28.79;35.85
76853;BME280;65825;52.232;10.566;2023-07-30T09:42:13;100133.84;;;29.37;36.18
76853;BME280;65825;52.232;10.566;2023-07-30T09:44:38;100144.75;;;25.91;41.54
76853;BME280;65825;52.232;10.566;2023-07-30T09:47:05;100146.13;;;25.52;41.26
76853;BME280;65825;52.232;10.566;2023-07-30T09:49:33;100130.50;;;27.39;39.63
76853;BME280;65825;52.232;10.566;2023-07-30T09:51:59;100140.56;;;24.74;44.03
76853;BME280;65825;52.232;10.566;2023-07-30T09:54:25;100139.97;;;27.19;39.11
76853;BME280;65825;52.232;10.566;2023-07-30T09:56:51;100140.03;;;26.78;39.58
76853;BME280;65825;52.232;10.566;2023-07-30T09:59:17;100147.06;;;26.63;39.79
76853;BME280;65825;52.232;10.566;2023-07-30T10:01:44;100156.94;;;27.21;39.75
76853;BME280;65825;52.232;10.566;2023-07-30T10:04:11;100157.09;;;26.70;40.11
76853;BME280;65825;52.232;10.566;2023-07-30T10:06:44;100162.44;;;27.04;40.27
76853;BME280;65825;52.232;10.566;2023-07-30T10:09:12;100159.38;;;26.99;40.04
76853;BME280;65825;52.232;10.566;2023-07-30T10:11:39;100162.75;;;27.01;39.72
76853;BME280;65825;52.232;10.566;2023-07-30T10:14:06;100151.53;;;27.37;39.73
76853;BME280;65825;52.232;10.566;2023-07-30T10:16:31;100152.94;;;27.00;39.68
76853;BME280;65825;52.232;10.566;2023-07-30T10:18:58;100162.53;;;26.19;40.73
76853;BME280;65825;52.232;10.566;2023-07-30T10:21:25;100168.69;;;26.96;40.72
76853;BME280;65825;52.232;10.566;2023-07-30T10:24:04;100166.00;;;26.37;40.36
76853;BME280;65825;52.232;10.566;2023-07-30T10:26:33;100171.00;;;25.99;41.87
76853;BME280;65825;52.232;10.566;2023-07-30T10:29:10;100174.63;;;23.83;45.43
76853;BME280;65825;52.232;10.566;2023-07-30T10:31:45;100187.66;;;23.11;48.76
76853;BME280;65825;52.232;10.566;2023-07-30T10:34:12;100180.16;;;22.36;50.50
76853;BME280;65825;52.232;10.566;2023-07-30T10:36:46;100182.03;;;22.15;53.06
76853;BME280;65825;52.232;10.566;2023-07-30T10:39:26;100184.19;;;22.21;51.71
76853;BME280;65825;52.232;10.566;2023-07-30T10:41:54;100187.97;;;21.88;54.97
76853;BME280;65825;52.232;10.566;2023-07-30T10:44:23;100187.81;;;21.69;54.08
76853;BME280;65825;52.232;10.566;2023-07-30T10:46:50;100192.81;;;21.42;56.09
76853;BME280;65825;52.232;10.566;2023-07-30T10:49:15;100200.97;;;21.52;55.68
76853;BME280;65825;52.232;10.566;2023-07-30T10:51:41;100196.63;;;21.29;56.86
76853;BME280;65825;52.232;10.566;2023-07-30T10:54:06;100203.47;;;20.68;57.03
76853;BME280;65825;52.232;10.566;2023-07-30T10:56:36;100203.09;;;20.95;56.33
76853;BME280;65825;52.232;10.566;2023-07-30T10:59:04;100205.59;;;21.18;56.39
76853;BME280;65825;52.232;10.566;2023-07-30T11:01:42;100201.84;;;21.41;58.14
76853;BME280;65825;52.232;10.566;2023-07-30T11:04:14;100194.41;;;21.65;55.59
76853;BME280;65825;52.232;10.566;2023-07-30T11:06:48;100212.34;;;21.96;53.22
76853;BME280;65825;52.232;10.566;2023-07-30T11:09:22;100202.56;;;22.16;53.41
76853;BME280;65825;52.232;10.566;2023-07-30T11:11:48;100213.34;;;22.25;53.33
76853;BME280;65825;52.232;10.566;2023-07-30T11:14:18;100207.41;;;22.22;53.52
76853;BME280;65825;52.232;10.566;2023-07-30T11:16:56;100206.88;;;22.28;53.67
76853;BME280;65825;52.232;10.566;2023-07-30T11:19:25;100213.25;;;21.86;55.29
76853;BME280;65825;52.232;10.566;2023-07-30T11:21:53;100207.69;;;21.46;54.61
76853;BME280;65825;52.232;10.566;2023-07-30T11:24:19;100205.13;;;21.76;55.72
76853;BME280;65825;52.232;10.566;2023-07-30T11:26:46;100210.44;;;21.56;57.31
76853;BME280;65825;52.232;10.566;2023-07-30T11:29:21;100212.16;;;21.68;54.90
76853;BME280;65825;52.232;10.566;2023-07-30T11:31:47;100209.94;;;21.30;55.77
76853;BME280;65825;52.232;10.566;2023-07-30T11:34:13;100210.00;;;21.19;56.22
76853;BME280;65825;52.232;10.566;2023-07-30T11:36:40;100212.00;;;20.95;56.20
76853;BME280;65825;52.232;10.566;2023-07-30T11:39:07;100199.06;;;21.00;57.24
76853;BME280;65825;52.232;10.566;2023-07-30T11:41:33;100207.94;;;21.43;57.55
76853;BME280;65825;52.232;10.566;2023-07-30T11:43:58;100213.63;;;21.29;57.26
76853;BME280;65825;52.232;10.566;2023-07-30T11:46:24;100208.31;;;21.39;57.00
76853;BME280;65825;52.232;10.566;2023-07-30T11:48:51;100210.28;;;20.94;58.33
76853;BME280;65825;52.232;10.566;2023-07-30T11:51:28;100202.09;;;21.07;59.07
76853;BME280;65825;52.232;10.566;2023-07-30T11:53:58;100198.34;;;20.98;58.68
76853;BME280;65825;52.232;10.566;2023-07-30T11:56:25;100204.06;;;20.94;59.77
76853;BME280;65825;52.232;10.566;2023-07-30T11:58:57;100205.75;;;21.06;60.09
76853;BME280;65825;52.232;10.566;2023-07-30T12:01:25;100199.44;;;21.27;60.03
76853;BME280;65825;52.232;10.566;2023-07-30T12:03:55;100205.31;;;21.84;58.65
76853;BME280;65825;52.232;10.566;2023-07-30T12:06:20;100194.97;;;21.17;59.67
76853;BME280;65825;52.232;10.566;2023-07-30T12:08:47;100191.53;;;20.72;61.06
76853;BME280;65825;52.232;10.566;2023-07-30T12:11:13;100187.88;;;20.62;61.53
76853;BME280;65825;52.232;10.566;2023-07-30T12:13:42;100190.91;;;20.80;62.63
76853;BME280;65825;52.232;10.566;2023-07-30T12:16:08;100189.91;;;21.03;61.99
76853;BME280;65825;52.232;10.566;2023-07-30T12:18:33;100188.94;;;20.93;63.02
76853;BME280;65825;52.232;10.566;2023-07-30T12:20:58;100192.22;;;20.74;64.86
76853;BME280;65825;52.232;10.566;2023-07-30T12:23:24;100198.88;;;21.55;62.54
76853;BME280;65825;52.232;10.566;2023-07-30T12:25:49;100196.81;;;22.00;60.82
76853;BME280;65825;52.232;10.566;2023-07-30T12:28:15;100189.75;;;25.40;52.15
76853;BME280;65825;52.232;10.566;2023-07-30T12:30:40;100188.47;;;25.87;47.36